createdAt,value
2019-04-25T00:01:16.107Z,78.80
2019-04-25T00:03:46.666Z,78.74
2019-04-25T00:06:17.767Z,78.74
2019-04-25T00:08:48.110Z,78.90
2019-04-25T00:11:18.874Z,78.88
2019-04-25T00:13:49.321Z,78.78
2019-04-25T00:16:21.620Z,78.83
2019-04-25T00:18:51.994Z,78.81
2019-04-25T00:21:28.944Z,78.59
2019-04-25T00:24:05.095Z,78.54
2019-04-25T00:26:48.558Z,78.45
2019-04-25T00:29:19.049Z,78.42
2019-04-25T00:31:49.496Z,78.31
2019-04-25T00:34:19.845Z,78.22
2019-04-25T00:36:51.517Z,78.22
2019-04-25T00:39:25.104Z,78.19
2019-04-25T00:41:55.731Z,78.07
2019-04-25T00:44:26.039Z,78.08
2019-04-25T00:46:56.869Z,78.14
2019-04-25T00:49:27.412Z,78.31
2019-04-25T00:51:57.789Z,78.49
2019-04-25T00:54:28.102Z,78.51
2019-04-25T00:56:58.432Z,78.56
2019-04-25T00:59:46.929Z,78.69
2019-04-25T01:02:31.287Z,78.83
2019-04-25T01:05:02.001Z,78.77
2019-04-25T01:07:34.469Z,78.79
2019-04-25T01:10:05.720Z,78.79
2019-04-25T01:12:36.299Z,78.69
2019-04-25T01:15:08.518Z,78.66
2019-04-25T01:17:38.901Z,78.64
2019-04-25T01:20:10.124Z,78.56
2019-04-25T01:22:40.674Z,78.48
2019-04-25T01:25:13.728Z,78.43
2019-04-25T01:27:44.543Z,78.28
2019-04-25T01:30:16.456Z,78.19
2019-04-25T01:32:46.821Z,78.10
2019-04-25T01:35:26.550Z,78.02
2019-04-25T01:38:10.980Z,77.87
2019-04-25T01:41:18.443Z,77.83
2019-04-25T01:43:59.711Z,77.87
2019-04-25T01:46:30.539Z,77.71
2019-04-25T01:49:00.934Z,77.65
2019-04-25T01:51:31.269Z,77.56
2019-04-25T01:54:01.645Z,77.41
2019-04-25T01:56:33.258Z,77.39
2019-04-25T01:59:03.993Z,77.22
2019-04-25T02:01:36.141Z,77.22
2019-04-25T02:04:07.635Z,77.13
2019-04-25T02:06:38.235Z,77.09
2019-04-25T02:09:11.689Z,77.15
2019-04-25T02:11:52.996Z,77.25
2019-04-25T02:14:24.665Z,77.38
2019-04-25T02:16:56.303Z,77.56
2019-04-25T02:19:27.179Z,77.54
2019-04-25T02:21:57.853Z,77.60
2019-04-25T02:24:28.800Z,77.70
2019-04-25T02:26:59.387Z,77.80
2019-04-25T02:29:29.861Z,77.92
2019-04-25T02:32:02.905Z,78.05
2019-04-25T02:34:34.615Z,78.15
2019-04-25T02:37:09.482Z,78.28
2019-04-25T02:39:38.735Z,78.42
2019-04-25T02:42:09.167Z,78.48
2019-04-25T02:44:44.525Z,78.57
2019-04-25T02:47:34.684Z,78.72
2019-04-25T02:50:24.714Z,78.74
2019-04-25T02:53:07.459Z,78.76
2019-04-25T02:55:38.049Z,78.81
2019-04-25T02:58:10.208Z,78.82
2019-04-25T03:00:52.609Z,78.88
2019-04-25T03:03:14.907Z,78.86
2019-04-25T03:05:47.727Z,78.88
2019-04-25T03:08:17.692Z,78.92
2019-04-25T03:10:48.516Z,78.96
2019-04-25T03:13:18.880Z,79.01
2019-04-25T03:15:52.594Z,79.04
2019-04-25T03:18:24.823Z,79.13
2019-04-25T03:21:17.648Z,79.21
2019-04-25T03:23:49.350Z,79.18
2019-04-25T03:26:19.860Z,79.30
2019-04-25T03:28:50.145Z,79.38
2019-04-25T03:31:23.077Z,79.36
2019-04-25T03:33:55.581Z,79.50
2019-04-25T03:36:24.914Z,79.50
2019-04-25T03:38:55.311Z,79.54
2019-04-25T03:41:25.672Z,79.60
2019-04-25T03:43:55.989Z,79.62
2019-04-25T03:46:26.347Z,79.60
2019-04-25T03:49:01.222Z,79.65
2019-04-25T03:51:36.271Z,79.74
2019-04-25T03:54:08.522Z,79.81
2019-04-25T03:56:49.867Z,79.85
2019-04-25T03:59:14.199Z,79.93
2019-04-25T04:01:44.010Z,80.15
2019-04-25T04:04:16.322Z,80.21
2019-04-25T04:06:47.085Z,80.23
2019-04-25T04:09:17.352Z,80.33
2019-04-25T04:11:47.606Z,80.29
2019-04-25T04:14:17.738Z,80.34
2019-04-25T04:17:06.732Z,80.32
2019-04-25T04:19:45.926Z,80.34
2019-04-25T04:22:24.122Z,80.30
2019-04-25T04:24:56.511Z,80.39
2019-04-25T04:27:26.842Z,80.37
2019-04-25T04:29:57.110Z,80.39
2019-04-25T04:32:27.195Z,80.39
2019-04-25T04:34:57.504Z,80.35
2019-04-25T04:37:27.712Z,80.27
2019-04-25T04:39:57.973Z,80.28
2019-04-25T04:42:28.399Z,80.28
2019-04-25T04:44:58.657Z,80.25
2019-04-25T04:47:28.804Z,80.23
2019-04-25T04:49:59.016Z,80.21
2019-04-25T04:52:29.131Z,80.12
2019-04-25T04:55:07.750Z,80.08
2019-04-25T04:57:35.562Z,80.05
2019-04-25T05:00:03.867Z,79.93
2019-04-25T05:03:08.177Z,79.90
2019-04-25T05:05:45.638Z,79.85
2019-04-25T05:08:21.979Z,79.75
2019-04-25T05:10:52.284Z,79.69
2019-04-25T05:13:24.158Z,79.57
2019-04-25T05:15:54.588Z,79.48
2019-04-25T05:18:34.539Z,79.37
2019-04-25T05:20:56.875Z,79.31
2019-04-25T05:23:27.408Z,79.17
2019-04-25T05:25:57.796Z,79.01
2019-04-25T05:28:28.024Z,78.87
2019-04-25T05:31:11.468Z,78.78
2019-04-25T05:33:43.539Z,78.65
2019-04-25T05:36:15.071Z,78.50
2019-04-25T05:38:45.862Z,78.29
2019-04-25T05:41:25.205Z,78.11
2019-04-25T05:43:56.020Z,77.95
2019-04-25T05:46:26.348Z,77.75
2019-04-25T05:48:56.584Z,77.54
2019-04-25T05:51:26.846Z,77.32
2019-04-25T05:53:57.172Z,77.12
2019-04-25T05:56:28.283Z,76.98
2019-04-25T05:58:58.558Z,76.80
2019-04-25T06:01:30.117Z,76.53
2019-04-25T06:04:00.459Z,76.36
2019-04-25T06:06:30.899Z,76.12
2019-04-25T06:09:11.425Z,75.83
2019-04-25T06:11:53.366Z,75.59
2019-04-25T06:14:25.141Z,75.22
2019-04-25T06:16:59.118Z,74.95
2019-04-25T06:19:43.559Z,74.64
2019-04-25T06:22:19.924Z,74.38
2019-04-25T06:24:56.601Z,74.11
2019-04-25T06:27:35.156Z,73.81
2019-04-25T06:30:22.476Z,73.51
2019-04-25T06:32:53.365Z,73.38
2019-04-25T06:35:25.169Z,71.77
2019-04-25T06:37:56.308Z,71.73
2019-04-25T06:40:29.421Z,71.59
2019-04-25T06:42:59.468Z,71.38
2019-04-25T06:45:46.375Z,70.99
2019-04-25T06:48:47.964Z,70.51
2019-04-25T06:51:18.663Z,70.01
2019-04-25T06:53:49.233Z,69.35
2019-04-25T06:56:19.704Z,68.95
2019-04-25T06:58:50.228Z,68.66
2019-04-25T07:01:22.137Z,67.91
2019-04-25T07:03:56.064Z,67.68
2019-04-25T07:06:27.212Z,67.55
2019-04-25T07:08:57.829Z,67.15
2019-04-25T07:11:28.454Z,66.65
2019-04-25T07:13:59.056Z,66.48
2019-04-25T07:16:29.584Z,66.05
2019-04-25T07:19:00.213Z,65.77
2019-04-25T07:21:30.835Z,65.39
2019-04-25T07:24:05.707Z,65.27
2019-04-25T07:26:53.805Z,64.90
2019-04-25T07:29:49.036Z,64.34
2019-04-25T07:32:38.894Z,64.06
2019-04-25T07:35:09.361Z,63.64
2019-04-25T07:37:41.761Z,63.62
2019-04-25T07:40:13.975Z,63.24
2019-04-25T07:42:44.909Z,63.02
2019-04-25T07:45:16.651Z,62.83
2019-04-25T07:47:47.255Z,62.36
2019-04-25T07:50:18.114Z,61.78
2019-04-25T07:52:48.667Z,61.31
2019-04-25T07:55:19.117Z,61.02
2019-04-25T07:57:49.581Z,60.54
2019-04-25T08:00:20.588Z,59.85
2019-04-25T08:02:51.141Z,59.51
2019-04-25T08:05:21.702Z,59.49
2019-04-25T08:07:53.608Z,59.14
2019-04-25T08:10:27.989Z,58.61
2019-04-25T08:12:58.627Z,58.52
2019-04-25T08:15:37.071Z,58.33
2019-04-25T08:18:09.012Z,58.24
2019-04-25T08:20:43.408Z,58.20
2019-04-25T08:23:13.977Z,58.47
2019-04-25T08:25:44.738Z,58.71
2019-04-25T08:28:15.430Z,58.20
2019-04-25T08:30:46.014Z,57.66
2019-04-25T08:33:16.521Z,57.05
2019-04-25T08:36:03.535Z,56.89
2019-04-25T08:38:19.825Z,56.65
2019-04-25T08:40:50.403Z,56.25
2019-04-25T08:43:20.724Z,55.45
2019-04-25T08:45:51.304Z,54.49
2019-04-25T08:48:24.675Z,54.10
2019-04-25T08:51:11.486Z,53.73
2019-04-25T08:53:49.613Z,53.23
2019-04-25T08:56:25.342Z,52.58
2019-04-25T08:59:17.762Z,52.42
2019-04-25T09:02:04.407Z,52.54
2019-04-25T09:04:59.570Z,52.95
2019-04-25T09:10:06.226Z,52.58
2019-04-25T09:12:44.255Z,52.04
2019-04-25T09:15:19.940Z,51.75
2019-04-25T09:17:54.779Z,51.58
2019-04-25T09:20:29.617Z,51.61
2019-04-25T09:23:03.344Z,51.85
2019-04-25T09:25:38.635Z,51.56
2019-04-25T09:28:14.267Z,51.27
2019-04-25T09:30:51.655Z,51.24
2019-04-25T09:33:28.698Z,50.92
2019-04-25T09:36:06.920Z,50.38
2019-04-25T09:38:38.950Z,50.32
2019-04-25T09:41:09.244Z,50.37
2019-04-25T09:46:21.901Z,48.34
2019-04-25T09:49:17.519Z,48.02
2019-04-25T09:51:58.527Z,48.48
2019-04-25T09:54:38.032Z,48.73
2019-04-25T09:57:27.565Z,48.86
2019-04-25T09:59:57.958Z,48.69
2019-04-25T10:02:28.523Z,48.75
2019-04-25T10:04:59.117Z,49.01
2019-04-25T10:07:29.722Z,49.01
2019-04-25T10:10:00.371Z,49.12
2019-04-25T10:12:31.085Z,48.54
2019-04-25T10:15:16.452Z,48.53
2019-04-25T10:17:47.127Z,48.46
2019-04-25T10:20:19.559Z,48.60
2019-04-25T10:22:50.120Z,48.12
2019-04-25T10:25:20.916Z,47.59
2019-04-25T10:27:52.311Z,47.34
2019-04-25T10:30:25.923Z,47.06
2019-04-25T10:32:56.010Z,47.21
2019-04-25T10:35:26.522Z,47.02
2019-04-25T10:37:56.970Z,46.71
2019-04-25T10:40:28.539Z,46.37
2019-04-25T10:42:59.513Z,46.28
2019-04-25T10:45:30.156Z,46.45
2019-04-25T10:48:00.893Z,46.25
2019-04-25T10:50:31.501Z,46.09
2019-04-25T10:53:04.015Z,45.33
2019-04-25T10:55:34.885Z,44.57
2019-04-25T10:58:05.501Z,44.15
2019-04-25T11:00:40.530Z,44.31
2019-04-25T11:03:28.544Z,43.84
2019-04-25T11:05:59.237Z,43.28
2019-04-25T11:08:29.947Z,43.11
2019-04-25T11:11:01.054Z,42.77
2019-04-25T11:13:31.612Z,42.41
2019-04-25T11:16:03.500Z,41.91
2019-04-25T11:18:34.115Z,41.05
2019-04-25T11:21:06.102Z,41.39
2019-04-25T11:23:36.771Z,41.41
2019-04-25T11:26:07.641Z,41.17
2019-04-25T11:28:39.850Z,40.62
2019-04-25T11:31:14.410Z,41.22
2019-04-25T11:33:45.060Z,41.66
2019-04-25T11:36:15.854Z,41.11
2019-04-25T11:39:04.201Z,40.04
2019-04-25T11:41:34.927Z,39.07
2019-04-25T11:44:05.968Z,38.39
2019-04-25T11:46:39.245Z,35.93
2019-04-25T11:49:09.021Z,36.72
2019-04-25T11:51:39.660Z,36.83
2019-04-25T11:54:10.288Z,36.53
2019-04-25T11:56:42.639Z,36.28
2019-04-25T11:59:15.750Z,36.51
2019-04-25T12:01:47.636Z,36.07
2019-04-25T12:04:18.492Z,35.13
2019-04-25T12:09:17.764Z,33.72
2019-04-25T12:11:48.595Z,33.21
2019-04-25T12:14:19.503Z,32.75
2019-04-25T12:16:51.525Z,32.51
2019-04-25T12:19:33.134Z,32.09
2019-04-25T12:21:56.748Z,31.31
2019-04-25T12:24:26.930Z,30.52
2019-04-25T12:26:57.761Z,30.18
2019-04-25T12:29:28.435Z,30.37
2019-04-25T12:31:59.041Z,29.77
2019-04-25T12:34:29.597Z,29.36
2019-04-25T12:37:00.221Z,29.06
2019-04-25T12:39:30.968Z,28.88
2019-04-25T12:42:01.783Z,28.28
2019-04-25T12:44:54.930Z,28.32
2019-04-25T12:47:27.350Z,28.30
2019-04-25T12:49:59.342Z,27.43
2019-04-25T12:52:30.040Z,26.78
2019-04-25T12:55:00.566Z,27.15
2019-04-25T12:57:31.196Z,26.89
2019-04-25T13:00:04.037Z,26.89
2019-04-25T13:02:36.575Z,25.92
2019-04-25T13:05:08.543Z,25.25
2019-04-25T13:07:39.099Z,24.80
2019-04-25T13:12:36.783Z,24.24
2019-04-25T13:15:08.706Z,24.30
2019-04-25T13:17:40.225Z,24.42
2019-04-25T13:20:12.386Z,24.29
2019-04-25T13:22:43.325Z,24.07
2019-04-25T13:25:15.682Z,23.46
2019-04-25T13:27:58.474Z,24.37
2019-04-25T13:33:34.547Z,24.12
2019-04-25T13:36:08.478Z,24.66
2019-04-25T13:38:39.139Z,24.01
2019-04-25T13:41:09.677Z,24.34
2019-04-25T13:43:40.422Z,24.83
2019-04-25T13:46:13.862Z,23.91
2019-04-25T13:48:43.297Z,23.73
2019-04-25T13:51:14.207Z,24.83
2019-04-25T13:53:44.976Z,24.15
2019-04-25T13:56:15.615Z,22.59
2019-04-25T13:58:46.320Z,24.47
2019-04-25T14:01:17.645Z,26.25
2019-04-25T14:03:48.335Z,26.40
2019-04-25T14:06:18.834Z,26.31
2019-04-25T14:08:49.269Z,24.98
2019-04-25T14:11:20.568Z,23.95
2019-04-25T14:16:40.918Z,21.94
2019-04-25T14:19:42.291Z,21.47
2019-04-25T14:22:13.120Z,21.25
2019-04-25T14:24:46.216Z,21.42
2019-04-25T14:27:19.524Z,21.98
2019-04-25T14:29:53.573Z,21.36
2019-04-25T14:32:31.107Z,21.29
2019-04-25T14:35:03.954Z,21.11
2019-04-25T14:37:39.525Z,19.82
2019-04-25T14:40:10.345Z,20.14
2019-04-25T14:42:43.417Z,20.11
2019-04-25T14:45:16.666Z,19.80
2019-04-25T14:47:49.669Z,19.85
2019-04-25T14:50:22.151Z,19.39
2019-04-25T14:52:54.782Z,19.30
2019-04-25T14:55:41.984Z,18.98
2019-04-25T14:58:17.158Z,19.08
2019-04-25T15:00:49.446Z,18.39
2019-04-25T15:03:24.035Z,17.99
2019-04-25T15:05:54.466Z,17.70
2019-04-25T15:08:24.952Z,17.83
2019-04-25T15:10:55.479Z,17.20
2019-04-25T15:13:25.840Z,17.43
2019-04-25T15:15:56.263Z,17.08
2019-04-25T15:18:26.758Z,16.34
2019-04-25T15:20:57.033Z,16.30
2019-04-25T15:23:27.381Z,17.11
2019-04-25T15:25:57.650Z,17.42
2019-04-25T15:28:27.831Z,18.33
2019-04-25T15:30:58.181Z,18.87
2019-04-25T15:33:28.444Z,19.63
2019-04-25T15:36:16.563Z,20.56
2019-04-25T15:38:54.909Z,21.46
2019-04-25T15:41:34.890Z,20.89
2019-04-25T15:44:27.047Z,20.35
2019-04-25T15:46:58.715Z,19.78
2019-04-25T15:49:28.991Z,20.68
2019-04-25T15:51:59.366Z,21.87
2019-04-25T15:54:29.669Z,23.12
2019-04-25T15:56:59.808Z,23.87
2019-04-25T15:59:30.762Z,23.98
2019-04-25T16:02:08.016Z,23.60
2019-04-25T16:04:34.525Z,22.62
2019-04-25T16:07:07.223Z,22.91
2019-04-25T16:09:37.798Z,23.46
2019-04-25T16:12:09.305Z,24.12
2019-04-25T16:14:41.857Z,24.79
2019-04-25T16:17:14.518Z,25.81
2019-04-25T16:19:51.329Z,26.69
2019-04-25T16:22:21.896Z,27.60
2019-04-25T16:24:52.647Z,28.39
2019-04-25T16:27:23.276Z,29.22
2019-04-25T16:29:53.791Z,29.69
2019-04-25T16:32:25.164Z,29.95
2019-04-25T16:34:59.195Z,30.46
2019-04-25T16:37:30.347Z,30.92
2019-04-25T16:40:00.951Z,32.08
2019-04-25T16:42:31.684Z,32.49
2019-04-25T16:45:02.369Z,32.54
2019-04-25T16:47:33.117Z,33.09
2019-04-25T16:50:04.071Z,33.37
2019-04-25T16:52:34.510Z,33.30
2019-04-25T16:55:05.223Z,33.26
2019-04-25T16:57:35.613Z,33.32
2019-04-25T17:00:10.847Z,33.62
2019-04-25T17:02:42.271Z,33.96
2019-04-25T17:05:13.167Z,34.31
2019-04-25T17:07:43.415Z,34.66
2019-04-25T17:10:13.928Z,34.95
2019-04-25T17:12:44.212Z,35.45
2019-04-25T17:15:26.728Z,36.14
2019-04-25T17:18:09.736Z,36.51
2019-04-25T17:20:44.274Z,37.15
2019-04-25T17:23:14.830Z,37.75
2019-04-25T17:25:45.242Z,38.59
2019-04-25T17:28:17.444Z,39.16
2019-04-25T17:30:49.383Z,39.70
2019-04-25T17:33:34.246Z,40.03
2019-04-25T17:36:10.394Z,40.37
2019-04-25T17:38:44.086Z,40.90
2019-04-25T17:41:17.179Z,41.43
2019-04-25T17:43:47.399Z,42.00
2019-04-25T17:46:19.739Z,42.39
2019-04-25T17:48:49.983Z,42.82
2019-04-25T17:51:20.447Z,43.11
2019-04-25T17:53:50.748Z,43.40
2019-04-25T17:56:21.073Z,43.61
2019-04-25T17:58:51.269Z,43.82
2019-04-25T18:01:24.229Z,44.01
2019-04-25T18:03:54.497Z,44.15
2019-04-25T18:06:24.770Z,45.23
2019-04-25T18:08:55.032Z,45.02
2019-04-25T18:11:25.301Z,45.02
2019-04-25T18:13:55.709Z,45.19
2019-04-25T18:16:38.132Z,45.38
2019-04-25T18:19:30.430Z,45.71
2019-04-25T18:22:07.430Z,45.95
2019-04-25T18:24:55.823Z,46.24
2019-04-25T18:27:30.558Z,46.44
2019-04-25T18:30:06.075Z,46.71
2019-04-25T18:32:39.709Z,46.93
2019-04-25T18:35:21.798Z,47.14
2019-04-25T18:38:15.708Z,47.37
2019-04-25T18:41:09.483Z,48.35
2019-04-25T18:43:46.930Z,48.02
2019-04-25T18:46:24.982Z,47.98
2019-04-25T18:48:57.598Z,48.02
2019-04-25T18:54:26.214Z,48.20
2019-04-25T18:57:26.677Z,48.25
2019-04-25T19:00:16.639Z,48.24
2019-04-25T19:03:35.283Z,48.24
2019-04-25T19:06:12.024Z,48.15
2019-04-25T19:08:54.208Z,48.06
2019-04-25T19:11:25.570Z,48.04
2019-04-25T19:13:56.310Z,48.08
2019-04-25T19:16:27.985Z,48.17
2019-04-25T19:18:58.614Z,48.20
2019-04-25T19:23:58.742Z,48.46
2019-04-25T19:26:30.295Z,48.47
2019-04-25T19:29:00.817Z,48.79
2019-04-25T19:31:31.566Z,48.62
2019-04-25T19:34:02.153Z,48.89
2019-04-25T19:36:33.055Z,49.13
2019-04-25T19:39:05.352Z,49.32
2019-04-25T19:42:00.529Z,49.52
2019-04-25T19:44:31.248Z,49.68
2019-04-25T19:47:01.695Z,49.52
2019-04-25T19:49:32.360Z,49.75
2019-04-25T19:52:05.819Z,49.76
2019-04-25T19:54:36.447Z,49.71
2019-04-25T19:57:08.470Z,49.69
2019-04-25T19:59:44.763Z,50.04
2019-04-25T20:02:44.618Z,50.36
2019-04-25T20:05:35.411Z,50.62
2019-04-25T20:08:28.129Z,50.93
2019-04-25T20:11:22.288Z,51.12
2019-04-25T20:16:47.672Z,51.36
2019-04-25T20:19:19.603Z,51.23
2019-04-25T20:21:52.045Z,51.38
2019-04-25T20:24:23.210Z,51.47
2019-04-25T20:26:54.628Z,51.58
2019-04-25T20:29:28.554Z,51.64
2019-04-25T20:31:58.836Z,51.77
2019-04-25T20:34:29.434Z,51.96
2019-04-25T20:36:59.965Z,52.27
2019-04-25T20:39:31.379Z,52.51
2019-04-25T20:42:01.926Z,52.93
2019-04-25T20:44:32.477Z,53.20
2019-04-25T20:47:03.040Z,53.57
2019-04-25T20:49:33.608Z,53.86
2019-04-25T20:52:04.163Z,56.80
2019-04-25T20:54:34.759Z,56.65
2019-04-25T20:57:05.427Z,57.08
2019-04-25T20:59:36.059Z,57.67
2019-04-25T21:02:34.764Z,58.57
2019-04-25T21:05:05.630Z,59.48
2019-04-25T21:07:36.300Z,61.02
2019-04-25T21:10:09.558Z,62.32
2019-04-25T21:12:40.143Z,63.87
2019-04-25T21:15:19.701Z,65.00
2019-04-25T21:18:15.287Z,65.69
2019-04-25T21:20:45.870Z,65.89
2019-04-25T21:23:16.489Z,66.64
2019-04-25T21:25:47.778Z,67.22
2019-04-25T21:28:18.117Z,68.03
2019-04-25T21:30:52.458Z,68.85
2019-04-25T21:33:23.274Z,69.44
2019-04-25T21:35:54.081Z,69.90
2019-04-25T21:38:27.276Z,70.32
2019-04-25T21:41:19.429Z,70.57
2019-04-25T21:43:54.187Z,70.60
2019-04-25T21:46:24.902Z,70.35
2019-04-25T21:48:55.564Z,70.52
2019-04-25T21:51:32.422Z,70.80
2019-04-25T21:54:04.087Z,71.04
2019-04-25T21:56:34.747Z,71.33
2019-04-25T22:01:38.901Z,72.07
2019-04-25T22:04:10.691Z,72.11
2019-04-25T22:06:41.514Z,72.10
2019-04-25T22:09:17.545Z,72.02
2019-04-25T22:11:48.728Z,72.12
2019-04-25T22:14:19.663Z,71.98
2019-04-25T22:16:50.677Z,71.97
2019-04-25T22:19:22.074Z,72.15
2019-04-25T22:21:53.072Z,72.04
2019-04-25T22:24:23.680Z,71.82
2019-04-25T22:26:56.445Z,71.96
2019-04-25T22:29:28.367Z,72.08
2019-04-25T22:32:17.718Z,72.05
2019-04-25T22:35:07.846Z,72.05
2019-04-25T22:37:38.353Z,71.99
2019-04-25T22:40:09.202Z,72.09
2019-04-25T22:42:39.643Z,72.26
2019-04-25T22:45:09.990Z,72.49
2019-04-25T22:47:40.275Z,72.58
2019-04-25T22:50:10.865Z,72.68
2019-04-25T22:52:41.480Z,72.67
2019-04-25T22:55:12.434Z,72.62
2019-04-25T22:57:42.876Z,72.64
2019-04-25T23:00:27.122Z,72.68
2019-04-25T23:03:05.532Z,72.81
2019-04-25T23:05:40.616Z,72.88
2019-04-25T23:08:11.434Z,72.75
2019-04-25T23:10:41.812Z,72.74
2019-04-25T23:13:13.317Z,72.75
2019-04-25T23:15:43.583Z,72.88
2019-04-25T23:18:14.022Z,72.89
2019-04-25T23:20:44.492Z,72.74
2019-04-25T23:23:15.250Z,72.90
2019-04-25T23:26:23.868Z,72.94
2019-04-25T23:28:54.231Z,73.06
2019-04-25T23:31:28.263Z,72.94
2019-04-25T23:33:58.661Z,72.48
2019-04-25T23:36:29.073Z,72.61
2019-04-25T23:38:59.397Z,72.58
2019-04-25T23:41:30.212Z,72.68
2019-04-25T23:44:00.643Z,72.55
2019-04-25T23:46:31.392Z,72.68
2019-04-25T23:49:01.724Z,72.55
2019-04-25T23:51:32.433Z,72.39
2019-04-25T23:54:03.390Z,72.53
2019-04-25T23:56:33.890Z,72.49
2019-04-25T23:59:04.945Z,72.43
